Time;durP1;ratioP1;P1;durP2;ratioP2;P2;SDS_P1;SDS_P2;PMS_P1;PMS_P2;Temp;Humidity;BMP_temperature;BMP_pressure;BME280_temperature;BME280_humidity;BME280_pressure;Samples;Min_cycle;Max_cycle;Signal;HPM_P1;HPM_P2
2022/08/25 00:01:28;;;;;;;29.55;22.15;;;;;;;23.86;62.20;101561.94;5047543;28;20106;-57
2022/08/25 00:03:54;;;;;;;27.63;21.52;;;;;;;23.77;62.49;101553.22;5043838;28;20035;-57
2022/08/25 00:06:20;;;;;;;30.02;21.08;;;;;;;23.68;62.58;101556.06;5043594;28;20029;-57
2022/08/25 00:08:46;;;;;;;26.98;21.13;;;;;;;23.69;62.38;101551.63;5048791;28;20079;-57
2022/08/25 00:11:18;;;;;;;27.23;21.58;;;;;;;23.64;62.67;101551.72;5046665;28;20484;-57
2022/08/25 00:13:47;;;;;;;28.33;21.58;;;;;;;23.59;62.62;101550.91;5045943;28;20035;-57
2022/08/25 00:16:15;;;;;;;33.92;22.92;;;;;;;23.55;62.97;101554.53;5045274;28;20033;-57
2022/08/25 00:18:46;;;;;;;26.40;21.23;;;;;;;23.51;62.82;101548.41;5047510;28;20402;-57
2022/08/25 00:21:12;;;;;;;32.72;22.55;;;;;;;23.46;62.94;101552.06;5042224;28;20029;-57
2022/08/25 00:23:38;;;;;;;31.73;22.55;;;;;;;23.41;62.97;101558.34;5047446;28;20039;-56
2022/08/25 00:26:05;;;;;;;30.50;22.85;;;;;;;23.36;63.62;101546.94;5044661;28;20024;-56
2022/08/25 00:28:30;;;;;;;30.02;22.85;;;;;;;23.32;63.75;101553.19;5047654;28;20111;-57
2022/08/25 00:30:57;;;;;;;28.02;21.92;;;;;;;23.31;63.01;101553.22;5048861;28;20571;-57
2022/08/25 00:33:25;;;;;;;30.60;22.70;;;;;;;23.23;63.48;101548.94;5035038;28;20039;-57
2022/08/25 00:35:51;;;;;;;31.10;23.00;;;;;;;23.20;64.31;101558.72;5044846;28;20025;-57
2022/08/25 00:38:16;;;;;;;31.73;23.42;;;;;;;23.15;64.52;101555.28;5041900;28;20040;-57
2022/08/25 00:40:42;;;;;;;33.22;22.27;;;;;;;23.13;64.49;101557.97;5044899;28;20021;-57
2022/08/25 00:43:08;;;;;;;30.23;23.75;;;;;;;23.11;64.02;101554.44;5046039;28;20053;-57
2022/08/25 00:45:34;;;;;;;31.95;24.02;;;;;;;22.99;64.49;101563.47;5046043;28;20021;-57
2022/08/25 00:48:00;;;;;;;34.42;25.52;;;;;;;22.93;64.78;101552.97;5041988;28;20090;-57
2022/08/25 00:50:27;;;;;;;34.13;24.95;;;;;;;22.91;64.77;101552.09;5044982;28;20108;-57
2022/08/25 00:52:57;;;;;;;35.13;25.90;;;;;;;22.90;65.22;101553.00;5044933;28;20028;-57
2022/08/25 00:55:28;;;;;;;33.78;23.92;;;;;;;22.90;64.77;101550.34;5042219;28;20036;-57
2022/08/25 00:58:02;;;;;;;35.55;25.52;;;;;;;22.82;64.93;101558.44;5044132;28;20033;-57
2022/08/25 01:00:35;;;;;;;32.13;24.58;;;;;;;22.81;64.60;101545.19;5045227;28;20493;-57
2022/08/25 01:03:01;;;;;;;32.80;25.23;;;;;;;22.78;64.67;101555.84;5040633;28;20033;-57
2022/08/25 01:05:29;;;;;;;34.95;25.48;;;;;;;22.71;64.93;101549.75;5044745;28;20025;-57
2022/08/25 01:07:56;;;;;;;34.40;26.52;;;;;;;22.73;64.90;101554.16;5041976;28;20515;-57
2022/08/25 01:10:22;;;;;;;37.50;27.33;;;;;;;22.67;65.06;101548.94;5048018;28;20035;-57
2022/08/25 01:12:50;;;;;;;35.50;26.20;;;;;;;22.63;64.85;101549.00;5049897;28;20037;-57
2022/08/25 01:15:16;;;;;;;33.75;25.73;;;;;;;22.61;65.34;101543.72;5051396;28;20032;-57
2022/08/25 01:17:53;;;;;;;36.30;26.35;;;;;;;22.57;65.19;101544.66;5047644;28;20024;-57
2022/08/25 01:20:21;;;;;;;35.42;25.98;;;;;;;22.53;65.17;101548.28;5036341;28;20420;-57
2022/08/25 01:22:49;;;;;;;44.50;27.48;;;;;;;22.52;65.62;101557.13;5047920;28;20035;-57
2022/08/25 01:25:26;;;;;;;37.72;28.40;;;;;;;22.49;65.52;101546.56;5043095;28;20067;-57
2022/08/25 01:27:51;;;;;;;40.53;27.92;;;;;;;22.46;65.11;101549.25;5051356;28;20056;-57
2022/08/25 01:30:17;;;;;;;40.83;29.52;;;;;;;22.37;66.78;101544.97;5046590;28;20060;-57
2022/08/25 01:32:43;;;;;;;43.40;29.10;;;;;;;22.34;66.45;101551.19;5052959;28;20027;-57
2022/08/25 01:35:08;;;;;;;39.67;29.48;;;;;;;22.29;66.22;101546.81;5049874;28;20024;-57
2022/08/25 01:37:34;;;;;;;39.55;28.23;;;;;;;22.27;66.52;101553.91;5049211;28;20025;-57
2022/08/25 01:39:59;;;;;;;39.40;27.00;;;;;;;22.22;66.20;101551.34;5041345;28;20116;-57
2022/08/25 01:42:52;;;;;;;39.13;28.60;;;;;;;22.20;65.53;101548.72;5047534;28;20041;-57
2022/08/25 01:45:19;;;;;;;40.58;29.65;;;;;;;22.22;65.93;101554.00;5048904;28;20036;-57
2022/08/25 01:47:44;;;;;;;42.35;30.60;;;;;;;22.16;66.91;101554.06;5052119;28;20091;-57
2022/08/25 01:50:10;;;;;;;38.75;28.52;;;;;;;22.11;66.69;101550.59;5049501;28;20103;-57
2022/08/25 01:53:00;;;;;;;40.72;29.13;;;;;;;22.08;66.10;101551.50;5051533;28;20024;-57
2022/08/25 01:55:25;;;;;;;39.35;27.73;;;;;;;22.08;65.61;101550.63;5047102;28;20029;-57
2022/08/25 01:57:51;;;;;;;42.08;28.90;;;;;;;22.03;65.79;101551.56;5047852;28;20039;-57
2022/08/25 02:00:18;;;;;;;45.08;29.83;;;;;;;22.00;66.05;101561.34;5044808;28;20154;-57
2022/08/25 02:02:43;;;;;;;39.88;28.85;;;;;;;21.97;66.06;101541.03;5048578;28;20024;-57
2022/08/25 02:05:12;;;;;;;45.10;32.42;;;;;;;21.92;66.62;101542.88;5047001;28;20033;-58
2022/08/25 02:07:38;;;;;;;;;;;;;;;22.03;64.59;101550.72;5050936;28;20143;-59
2022/08/25 02:10:05;;;;;;;50.67;34.30;;;;;;;21.91;66.77;101550.84;5049517;28;20053;-57
2022/08/25 02:12:31;;;;;;;50.13;35.42;;;;;;;21.85;66.66;101552.66;5047856;28;20503;-57
2022/08/25 02:14:58;;;;;;;51.85;36.15;;;;;;;21.79;67.11;101549.22;5049540;28;20098;-56
2022/08/25 02:17:23;;;;;;;54.42;36.78;;;;;;;21.76;67.69;101546.63;5048089;28;20028;-57
2022/08/25 02:19:49;;;;;;;49.60;34.92;;;;;;;21.73;67.03;101541.34;5046486;28;20036;-57
2022/08/25 02:22:14;;;;;;;50.50;35.72;;;;;;;21.73;67.17;101552.81;5050399;28;20484;-57
2022/08/25 02:24:40;;;;;;;52.97;36.05;;;;;;;21.68;67.43;101547.56;5046993;28;20130;-57
2022/08/25 02:27:05;;;;;;;51.90;35.47;;;;;;;21.63;67.51;101546.75;5052008;28;20510;-57
2022/08/25 02:29:31;;;;;;;53.85;37.55;;;;;;;21.56;68.06;101550.34;5049244;28;20469;-57
2022/08/25 02:31:57;;;;;;;53.42;36.65;;;;;;;21.60;67.27;101546.78;5047446;28;20483;-57
2022/08/25 02:34:23;;;;;;;56.67;37.00;;;;;;;21.54;67.32;101546.84;5048833;28;20626;-57
2022/08/25 02:36:48;;;;;;;51.92;36.15;;;;;;;21.53;67.60;101545.94;5047018;28;20065;-57
2022/08/25 02:39:13;;;;;;;49.35;33.85;;;;;;;21.53;67.25;101545.09;5050989;28;20016;-57
2022/08/25 02:41:39;;;;;;;48.88;33.95;;;;;;;21.50;67.02;101542.44;5047415;28;20409;-59
2022/08/25 02:44:06;;;;;;;51.38;34.63;;;;;;;21.47;66.81;101539.81;5046406;28;20111;-57
2022/08/25 02:46:32;;;;;;;45.22;34.10;;;;;;;21.45;67.41;101541.59;5051336;28;20025;-57
2022/08/25 02:48:57;;;;;;;49.40;34.58;;;;;;;21.43;66.65;101540.75;5049148;28;20036;-57
2022/08/25 02:51:24;;;;;;;53.72;35.53;;;;;;;21.37;67.13;101545.19;5045196;28;20025;-59
2022/08/25 02:53:50;;;;;;;51.55;36.53;;;;;;;21.31;67.44;101534.66;5047894;28;20044;-57
2022/08/25 02:56:17;;;;;;;55.00;36.72;;;;;;;21.31;67.06;101537.31;5050656;28;20024;-57
2022/08/25 02:58:44;;;;;;;54.47;37.13;;;;;;;21.27;67.55;101532.06;5048763;28;20487;-58
2022/08/25 03:01:10;;;;;;;56.28;38.80;;;;;;;21.28;67.03;101529.41;5048675;28;20484;-57
2022/08/25 03:03:39;;;;;;;57.17;38.53;;;;;;;21.22;67.44;101526.81;5048181;28;20207;-58
2022/08/25 03:06:08;;;;;;;57.10;39.95;;;;;;;21.23;67.30;101528.56;5043267;28;20025;-58
2022/08/25 03:08:35;;;;;;;54.13;38.97;;;;;;;21.19;67.17;101525.06;5045662;28;20147;-58
2022/08/25 03:11:01;;;;;;;54.40;38.40;;;;;;;21.17;67.21;101524.22;5048452;28;20102;-58
2022/08/25 03:13:26;;;;;;;53.10;37.47;;;;;;;21.13;67.30;101527.78;5047415;28;20024;-58
2022/08/25 03:15:53;;;;;;;56.40;37.63;;;;;;;21.13;67.60;101526.88;5047152;28;20036;-58
2022/08/25 03:18:18;;;;;;;52.38;37.10;;;;;;;21.08;67.51;101519.00;5047237;28;20036;-58
2022/08/25 03:20:44;;;;;;;58.80;37.95;;;;;;;21.07;67.72;101513.72;5040745;28;20021;-58
2022/08/25 03:23:10;;;;;;;58.72;37.25;;;;;;;21.04;67.24;101519.03;5041567;28;20021;-57
2022/08/25 03:28:22;;;;;;;53.70;38.10;;;;;;;21.00;67.07;101510.22;5047639;28;20399;-57
2022/08/25 03:30:47;;;;;;;58.60;38.70;;;;;;;20.98;67.19;101514.66;5045139;28;20049;-57
2022/08/25 03:33:13;;;;;;;58.20;39.30;;;;;;;20.95;67.08;101504.09;5047772;28;20044;-56
2022/08/25 03:35:38;;;;;;;59.40;39.05;;;;;;;20.92;67.53;101502.34;5048740;28;20036;-57
2022/08/25 03:38:04;;;;;;;56.08;38.10;;;;;;;20.91;66.43;101505.88;5048251;28;20072;-57
2022/08/25 03:40:29;;;;;;;55.85;38.83;;;;;;;20.89;66.19;101504.16;5045037;28;20446;-57
2022/08/25 03:42:55;;;;;;;57.75;37.58;;;;;;;20.85;66.61;101511.25;5050572;28;20193;-56
2022/08/25 03:45:21;;;;;;;54.17;37.88;;;;;;;20.80;66.64;101500.69;5044589;28;20103;-56
2022/08/25 03:47:48;;;;;;;59.03;37.28;;;;;;;20.79;66.77;101498.94;5043756;28;20029;-57
2022/08/25 03:50:15;;;;;;;55.15;37.00;;;;;;;20.74;66.67;101499.84;5047054;28;20029;-56
2022/08/25 03:52:41;;;;;;;52.42;37.30;;;;;;;20.70;66.37;101488.44;5044535;28;20031;-57
2022/08/25 03:55:10;;;;;;;59.22;36.83;;;;;;;20.67;66.87;101497.25;5044121;28;20025;-57
2022/08/25 03:57:37;;;;;;;61.60;36.63;;;;;;;20.61;66.72;101489.34;5047884;28;20628;-56
2022/08/25 04:00:07;;;;;;;52.33;35.42;;;;;;;20.61;66.61;101489.34;5044830;28;20099;-58
2022/08/25 04:02:32;;;;;;;49.50;35.53;;;;;;;20.57;66.46;101490.25;5028600;28;20040;-57
2022/08/25 04:04:58;;;;;;;52.85;35.38;;;;;;;20.51;66.12;101477.06;5040248;28;20032;-57
2022/08/25 04:07:23;;;;;;;54.17;35.50;;;;;;;20.49;66.21;101479.72;5050470;28;20659;-57
2022/08/25 04:09:49;;;;;;;49.03;34.90;;;;;;;20.50;65.84;101475.31;5047183;28;20056;-57
2022/08/25 04:12:14;;;;;;;50.25;34.42;;;;;;;20.47;66.36;101478.84;5046004;28;20048;-57
2022/08/25 04:14:40;;;;;;;50.65;35.03;;;;;;;20.43;66.36;101478.88;5049292;28;20021;-57
2022/08/25 04:17:05;;;;;;;52.83;33.45;;;;;;;20.38;65.99;101476.28;5043930;28;20545;-57
2022/08/25 04:19:30;;;;;;;52.28;33.88;;;;;;;20.36;66.45;101482.47;5044227;28;20032;-57
2022/08/25 04:21:56;;;;;;;52.33;34.15;;;;;;;20.36;65.94;101482.47;5037662;28;20052;-57
2022/08/25 04:24:21;;;;;;;52.78;33.92;;;;;;;20.32;65.92;101487.78;5046063;28;20041;-57
2022/08/25 04:26:49;;;;;;;49.75;33.53;;;;;;;20.29;66.09;101485.16;5045849;28;20041;-57
2022/08/25 04:29:17;;;;;;;53.50;33.28;;;;;;;20.25;66.01;101488.72;5042061;28;20063;-57
2022/08/25 04:31:45;;;;;;;52.77;33.17;;;;;;;20.24;65.58;101476.34;5047609;28;20028;-57
2022/08/25 04:34:11;;;;;;;51.40;32.35;;;;;;;20.23;65.92;101477.22;5046654;28;20048;-57
2022/08/25 04:36:37;;;;;;;45.20;31.38;;;;;;;20.24;65.92;101478.13;5046630;28;20025;-57
2022/08/25 04:39:03;;;;;;;47.97;31.33;;;;;;;20.20;65.56;101473.75;5045432;28;20083;-57
2022/08/25 04:41:30;;;;;;;49.90;32.03;;;;;;;20.16;65.54;101464.97;5044440;28;20401;-57
2022/08/25 04:43:57;;;;;;;44.55;30.65;;;;;;;20.13;66.28;101472.88;5038967;28;20052;-57
2022/08/25 04:46:26;;;;;;;46.38;29.80;;;;;;;20.08;65.84;101467.63;5041742;28;20116;-57
2022/08/25 04:48:54;;;;;;;47.15;30.38;;;;;;;20.05;66.23;101464.13;5045873;28;20035;-56
2022/08/25 04:51:25;;;;;;;43.60;30.75;;;;;;;20.02;66.57;101459.75;5034901;28;20031;-57
2022/08/25 04:53:51;;;;;;;45.80;31.27;;;;;;;20.02;66.11;101461.53;5044467;28;20143;-57
2022/08/25 04:56:20;;;;;;;47.55;31.23;;;;;;;19.99;66.31;101465.06;5048769;28;20443;-57
2022/08/25 04:58:46;;;;;;;47.33;31.35;;;;;;;19.98;66.08;101458.88;5047753;28;20028;-57
2022/08/25 05:01:17;;;;;;;48.55;29.70;;;;;;;19.94;65.83;101456.25;5042287;28;20055;-57
2022/08/25 05:03:44;;;;;;;42.28;29.23;;;;;;;19.93;65.95;101457.16;5041048;28;20503;-59
2022/08/25 05:06:09;;;;;;;40.95;29.40;;;;;;;19.90;66.37;101463.34;5040105;28;20435;-56
2022/08/25 05:08:35;;;;;;;40.63;29.05;;;;;;;19.87;66.04;101463.34;5046701;28;20045;-57
2022/08/25 05:11:09;;;;;;;44.67;29.23;;;;;;;19.84;65.90;101479.22;5042424;28;20068;-58
2022/08/25 05:13:35;;;;;;;41.00;28.00;;;;;;;19.84;66.14;101473.06;5047848;28;20048;-58
2022/08/25 05:16:01;;;;;;;41.75;28.38;;;;;;;19.82;66.19;101478.34;5048521;28;20479;-58
2022/08/25 05:18:28;;;;;;;41.33;29.02;;;;;;;19.78;65.88;101482.78;5043709;28;20021;-58
2022/08/25 05:20:55;;;;;;;40.17;28.02;;;;;;;19.79;65.99;101481.03;5046133;28;20512;-57
2022/08/25 05:23:22;;;;;;;41.00;27.65;;;;;;;19.77;66.39;101483.63;5043165;28;20028;-58
2022/08/25 05:25:49;;;;;;;42.30;27.63;;;;;;;19.75;66.52;101489.81;5035910;28;20377;-58
2022/08/25 05:28:15;;;;;;;39.20;26.30;;;;;;;19.75;66.67;101497.75;5023448;28;20369;-58
2022/08/25 05:30:42;;;;;;;35.65;25.02;;;;;;;19.77;66.22;101494.22;5045838;28;20266;-58
2022/08/25 05:33:09;;;;;;;40.17;25.10;;;;;;;19.75;66.38;101495.09;5043929;28;20029;-58
2022/08/25 05:35:35;;;;;;;37.00;25.35;;;;;;;19.74;66.64;101496.88;5045108;28;20021;-58
2022/08/25 05:38:02;;;;;;;34.40;24.23;;;;;;;19.73;66.51;101497.75;5044464;28;20044;-58
2022/08/25 05:40:28;;;;;;;35.10;24.10;;;;;;;19.78;66.30;101500.38;5043905;28;20047;-58
2022/08/25 05:42:53;;;;;;;37.50;24.20;;;;;;;19.78;67.33;101501.31;5047478;28;20087;-58
2022/08/25 05:45:19;;;;;;;35.45;24.52;;;;;;;19.78;67.38;101489.78;5038037;28;20400;-57
2022/08/25 05:47:44;;;;;;;33.80;23.95;;;;;;;19.80;66.73;101494.22;5033914;28;20473;-59
2022/08/25 05:50:10;;;;;;;34.88;23.15;;;;;;;19.81;67.31;101508.31;5046277;28;20021;-57
2022/08/25 05:52:37;;;;;;;33.42;23.55;;;;;;;19.83;66.68;101501.28;5046789;28;20132;-58
2022/08/25 05:55:03;;;;;;;34.40;23.25;;;;;;;19.85;66.75;101507.44;5044112;28;20028;-57
2022/08/25 05:57:28;;;;;;;35.58;23.67;;;;;;;19.85;66.48;101506.56;5048134;28;20025;-58
2022/08/25 05:59:54;;;;;;;36.65;23.02;;;;;;;19.86;66.17;101508.34;5049386;28;20021;-58
2022/08/25 06:05:03;;;;;;;33.60;23.30;;;;;;;19.89;66.19;101518.88;5050258;28;20043;-58
2022/08/25 06:07:29;;;;;;;36.10;22.67;;;;;;;19.89;66.23;101513.59;5046976;28;20028;-59
2022/08/25 06:09:54;;;;;;;31.38;23.48;;;;;;;19.92;66.32;101510.94;5039955;28;20048;-58
2022/08/25 06:12:20;;;;;;;36.00;22.65;;;;;;;19.93;66.68;101512.72;5038692;28;20336;-58
2022/08/25 06:14:48;;;;;;;33.92;23.20;;;;;;;19.94;66.75;101517.09;5047866;28;20400;-58
2022/08/25 06:17:14;;;;;;;35.20;22.48;;;;;;;19.94;66.74;101510.06;5045994;28;20076;-58
2022/08/25 06:19:39;;;;;;;32.38;23.05;;;;;;;19.97;66.33;101509.13;5050875;28;20549;-58
2022/08/25 06:22:04;;;;;;;33.17;22.40;;;;;;;19.99;66.46;101507.38;5048075;28;20048;-58
2022/08/25 06:24:30;;;;;;;34.50;22.90;;;;;;;20.01;66.53;101507.38;5047410;28;20028;-58
2022/08/25 06:26:56;;;;;;;32.42;22.42;;;;;;;20.04;66.60;101510.00;5052007;28;20028;-55
2022/08/25 06:29:21;;;;;;;38.63;23.10;;;;;;;20.04;66.55;101508.22;5046465;28;20036;-57
2022/08/25 06:31:48;;;;;;;31.33;21.85;;;;;;;20.07;66.94;101512.63;5049433;28;20019;-57
2022/08/25 06:34:14;;;;;;;34.10;22.23;;;;;;;20.07;67.25;101502.91;5049829;28;20032;-57
2022/08/25 06:36:39;;;;;;;35.53;22.80;;;;;;;20.07;66.57;101505.56;5036370;28;20396;-57
2022/08/25 06:39:05;;;;;;;35.90;22.17;;;;;;;20.13;67.26;101513.47;5044502;28;20464;-57
2022/08/25 06:41:30;;;;;;;34.33;22.05;;;;;;;20.14;66.60;101509.94;5044041;28;20045;-57
2022/08/25 06:43:57;;;;;;;33.13;21.20;;;;;;;20.18;66.23;101513.44;5047676;28;20048;-57
2022/08/25 06:46:25;;;;;;;33.75;21.35;;;;;;;20.20;66.05;101516.94;5028398;28;20456;-57
2022/08/25 06:48:52;;;;;;;32.95;22.83;;;;;;;20.24;65.97;101515.19;5048707;28;20522;-57
2022/08/25 06:51:18;;;;;;;32.15;22.25;;;;;;;20.25;65.70;101512.53;5042233;28;20082;-58
2022/08/25 06:53:46;;;;;;;34.03;21.48;;;;;;;20.30;66.26;101513.34;5040881;28;20434;-58
2022/08/25 06:56:11;;;;;;;37.72;22.60;;;;;;;20.33;66.35;101510.72;5045558;28;20036;-58
2022/08/25 06:58:38;;;;;;;34.45;20.92;;;;;;;20.37;65.46;101506.28;5047386;28;20035;-58
2022/08/25 07:01:09;;;;;;;35.08;21.42;;;;;;;20.43;65.89;101508.00;5044327;28;20386;-57
2022/08/25 07:03:34;;;;;;;36.28;19.55;;;;;;;20.46;65.43;101502.69;5043477;28;20484;-58
2022/08/25 07:05:59;;;;;;;31.92;19.33;;;;;;;20.51;65.37;101506.19;5040457;28;20039;-59
2022/08/25 07:08:25;;;;;;;36.38;21.02;;;;;;;20.55;65.97;101497.34;5040750;28;20025;-58
2022/08/25 07:10:50;;;;;;;33.97;20.52;;;;;;;20.63;65.39;101497.28;5043930;28;20039;-58
2022/08/25 07:13:16;;;;;;;34.17;19.25;;;;;;;20.67;64.76;101504.34;5038279;28;20492;-58
2022/08/25 07:15:42;;;;;;;32.78;18.58;;;;;;;20.73;65.06;101492.81;5037458;28;20037;-57
2022/08/25 07:18:10;;;;;;;28.70;18.70;;;;;;;20.80;65.65;101495.41;5039791;28;20029;-57
2022/08/25 07:20:35;;;;;;;41.03;19.25;;;;;;;20.86;64.88;101486.53;5041079;28;20055;-57
2022/08/25 07:23:01;;;;;;;29.33;18.48;;;;;;;20.89;64.20;101489.13;5038671;28;20029;-57
2022/08/25 07:25:26;;;;;;;29.88;18.20;;;;;;;20.94;64.24;101491.75;5040813;28;20036;-57
2022/08/25 07:27:52;;;;;;;30.52;18.38;;;;;;;20.99;64.33;101492.59;5039690;28;20407;-57
2022/08/25 07:30:18;;;;;;;25.55;17.58;;;;;;;21.04;64.17;101500.50;5038605;28;20211;-57
2022/08/25 07:32:43;;;;;;;32.80;17.65;;;;;;;21.08;64.50;101500.44;5040007;28;20025;-57
2022/08/25 07:35:16;;;;;;;30.83;17.85;;;;;;;21.12;64.03;101499.53;5040679;28;20029;-57
2022/08/25 07:37:47;;;;;;;25.42;16.33;;;;;;;21.19;63.27;101493.25;5045584;28;20025;-57
2022/08/25 07:40:21;;;;;;;29.02;17.33;;;;;;;21.27;64.50;101489.66;5038579;28;20185;-57
2022/08/25 07:42:52;;;;;;;30.45;17.90;;;;;;;21.33;63.01;101494.88;5048961;28;20047;-57
2022/08/25 07:45:19;;;;;;;29.05;17.98;;;;;;;21.42;63.21;101488.59;5039293;28;20032;-57
2022/08/25 07:47:44;;;;;;;28.02;16.63;;;;;;;21.48;63.48;101488.56;5044081;28;20068;-57
2022/08/25 07:50:12;;;;;;;30.52;17.38;;;;;;;21.53;62.27;101492.91;5042679;28;20133;-57
2022/08/25 07:52:39;;;;;;;29.75;17.58;;;;;;;21.62;62.58;101485.75;5039785;28;20196;-57
2022/08/25 07:55:06;;;;;;;29.92;16.75;;;;;;;21.69;62.16;101482.13;5038941;28;20036;-58
2022/08/25 07:57:31;;;;;;;25.90;16.33;;;;;;;21.78;62.15;101484.66;5039828;28;20029;-59
2022/08/25 07:59:57;;;;;;;28.98;16.10;;;;;;;21.84;62.08;101478.41;5039955;28;20102;-56
2022/08/25 08:02:23;;;;;;;26.52;16.30;;;;;;;21.91;60.86;101476.56;5041776;28;20040;-57
2022/08/25 08:04:50;;;;;;;22.98;14.88;;;;;;;21.98;60.84;101479.09;5048731;28;20020;-56
2022/08/25 08:07:21;;;;;;;29.13;15.50;;;;;;;22.05;60.88;101470.16;5048616;28;20040;-56
2022/08/25 08:09:47;;;;;;;23.67;15.43;;;;;;;22.17;59.38;101474.44;5046429;28;20481;-56
2022/08/25 08:12:12;;;;;;;24.23;14.82;;;;;;;22.24;60.19;101468.09;5049384;28;20032;-56
2022/08/25 08:14:38;;;;;;;23.08;15.27;;;;;;;22.32;61.25;101473.34;5039864;28;20053;-56
2022/08/25 08:17:06;;;;;;;22.63;15.15;;;;;;;22.44;60.32;101474.06;5050388;28;20433;-56
2022/08/25 08:19:32;;;;;;;19.73;14.10;;;;;;;22.51;60.52;101473.94;5041319;28;20393;-57
2022/08/25 08:21:57;;;;;;;23.15;14.20;;;;;;;22.60;61.21;101466.72;5029211;28;20033;-56
2022/08/25 08:24:22;;;;;;;26.20;14.43;;;;;;;22.68;59.59;101467.44;5040873;28;20064;-56
2022/08/25 08:26:48;;;;;;;26.05;14.93;;;;;;;22.75;59.79;101469.09;5049874;28;20021;-56
2022/08/25 08:29:15;;;;;;;21.27;14.15;;;;;;;22.83;57.06;101471.66;5047424;28;20400;-56
2022/08/25 08:31:40;;;;;;;21.08;14.32;;;;;;;22.90;59.38;101473.28;5045406;28;20067;-56
2022/08/25 08:34:06;;;;;;;21.30;14.80;;;;;;;22.99;59.44;101470.47;5049053;28;20095;-56
2022/08/25 08:36:32;;;;;;;21.08;14.85;;;;;;;23.12;57.46;101470.28;5048774;28;20032;-56
2022/08/25 08:38:57;;;;;;;21.98;14.60;;;;;;;23.24;57.53;101464.72;5046325;28;20032;-58
2022/08/25 08:44:35;;;;;;;23.60;15.45;;;;;;;23.46;57.84;101465.16;5045715;28;20090;-56
2022/08/25 08:47:18;;;;;;;24.60;14.57;;;;;;;23.59;57.27;101461.34;5048406;28;20025;-56
2022/08/25 08:49:52;;;;;;;22.52;14.63;;;;;;;23.83;56.60;101464.38;5047077;28;20506;-56
2022/08/25 08:52:23;;;;;;;24.83;14.40;;;;;;;23.95;55.60;101460.59;5033653;28;20032;-56
2022/08/25 08:54:55;;;;;;;21.40;15.00;;;;;;;24.04;55.08;101456.84;5047292;28;20028;-56
2022/08/25 08:57:25;;;;;;;24.92;14.52;;;;;;;24.10;55.32;101460.28;5047175;28;20071;-56
2022/08/25 08:59:59;;;;;;;21.67;13.85;;;;;;;24.26;53.67;101450.13;5049289;28;20013;-55
2022/08/25 09:02:30;;;;;;;22.48;14.00;;;;;;;24.36;54.12;101450.78;5046405;28;20296;-56
2022/08/25 09:05:03;;;;;;;23.48;14.55;;;;;;;24.54;53.31;101461.91;5047007;28;20056;-57
2022/08/25 09:07:34;;;;;;;24.23;14.05;;;;;;;24.67;53.79;101457.19;5047843;28;20029;-57
2022/08/25 09:10:00;;;;;;;24.58;15.52;;;;;;;24.79;53.20;101452.38;5048479;28;20032;-57
2022/08/25 09:12:25;;;;;;;21.77;15.13;;;;;;;24.91;52.89;101463.63;5042118;28;20029;-57
2022/08/25 09:15:04;;;;;;;23.65;14.65;;;;;;;24.99;52.57;101467.84;5037763;28;20033;-57
2022/08/25 09:17:41;;;;;;;21.95;15.20;;;;;;;25.14;52.16;101463.91;5048239;28;20025;-57
2022/08/25 09:20:31;;;;;;;24.05;14.65;;;;;;;25.25;51.06;101465.41;5048944;28;20116;-57
2022/08/25 09:23:06;;;;;;;20.65;14.85;;;;;;;25.33;52.53;101463.41;5036144;28;20028;-57
2022/08/25 09:25:54;;;;;;;22.90;14.93;;;;;;;25.55;53.31;101468.13;5042483;28;20025;-57
2022/08/25 09:28:25;;;;;;;21.75;15.93;;;;;;;25.61;50.88;101451.97;5039656;28;20247;-57
2022/08/25 09:30:59;;;;;;;21.25;14.65;;;;;;;25.69;51.27;101444.59;5048906;28;20029;-57
2022/08/25 09:33:27;;;;;;;21.10;14.63;;;;;;;25.84;52.65;101454.81;5050281;28;20047;-57
2022/08/25 09:35:54;;;;;;;23.73;14.85;;;;;;;25.99;48.39;101452.59;5051880;28;20021;-59
2022/08/25 09:38:20;;;;;;;22.20;13.77;;;;;;;26.16;50.12;101449.41;5051338;28;20028;-57
2022/08/25 09:40:49;;;;;;;18.17;13.75;;;;;;;26.24;49.10;101457.19;5026745;28;20444;-57
2022/08/25 09:43:30;;;;;;;19.60;13.93;;;;;;;26.30;49.72;101444.50;5053005;28;20106;-57
2022/08/25 09:45:58;;;;;;;24.55;14.43;;;;;;;26.44;48.74;101449.38;5040682;28;20033;-57
2022/08/25 09:48:36;;;;;;;21.42;13.98;;;;;;;26.68;47.15;101442.38;5051883;28;20028;-57
2022/08/25 09:51:22;;;;;;;21.92;13.75;;;;;;;26.70;48.26;101440.50;5047531;28;20028;-57
2022/08/25 09:53:52;;;;;;;18.17;13.20;;;;;;;26.86;47.48;101446.19;5052022;28;20159;-57
2022/08/25 09:56:26;;;;;;;20.02;13.75;;;;;;;26.94;44.93;101435.25;5053202;28;20094;-57
2022/08/25 09:58:52;;;;;;;19.45;12.75;;;;;;;27.02;44.35;101430.47;5034201;28;20392;-55
2022/08/25 10:01:22;;;;;;;18.30;13.48;;;;;;;27.17;46.99;101426.38;5040139;28;20138;-57
2022/08/25 10:03:55;;;;;;;24.17;13.38;;;;;;;27.29;48.05;101414.34;5043708;28;20025;-57
2022/08/25 10:06:21;;;;;;;22.48;14.45;;;;;;;27.45;45.01;101417.34;5043498;28;20025;-57
2022/08/25 10:08:47;;;;;;;19.50;13.40;;;;;;;27.59;44.79;101415.00;5044921;28;20039;-59
2022/08/25 10:11:27;;;;;;;24.42;13.35;;;;;;;27.63;44.38;101414.91;5048028;28;20029;-59
2022/08/25 10:14:03;;;;;;;17.73;13.05;;;;;;;27.80;44.46;101408.88;5047158;28;20446;-59
2022/08/25 10:16:31;;;;;;;19.85;13.10;;;;;;;28.01;43.00;101404.47;5042678;28;20102;-61
2022/08/25 10:19:09;;;;;;;20.27;12.65;;;;;;;28.25;42.66;101410.66;5036176;28;20377;-61
2022/08/25 10:21:38;;;;;;;18.65;12.45;;;;;;;28.40;42.36;101401.97;5041105;28;20147;-61
2022/08/25 10:24:04;;;;;;;17.08;12.05;;;;;;;28.52;41.18;101405.94;5039075;28;20040;-61
2022/08/25 10:26:36;;;;;;;19.10;12.63;;;;;;;28.69;40.46;101401.66;5043390;28;20758;-60
2022/08/25 10:29:01;;;;;;;18.02;12.35;;;;;;;28.75;43.22;101396.03;5038118;28;20408;-59
2022/08/25 10:31:34;;;;;;;21.63;12.17;;;;;;;28.90;39.49;101400.72;5042268;28;20025;-60
2022/08/25 10:34:18;;;;;;;15.88;11.77;;;;;;;28.93;41.93;101394.34;5040205;28;20290;-59
2022/08/25 10:37:04;;;;;;;15.13;11.25;;;;;;;29.08;42.64;101387.41;5038652;28;20055;-59
2022/08/25 10:39:42;;;;;;;13.40;10.68;;;;;;;29.13;40.77;101386.25;5042707;28;20056;-59
2022/08/25 10:42:39;;;;;;;18.33;10.75;;;;;;;29.25;38.49;101384.84;5042701;28;20129;-60
2022/08/25 10:48:32;;;;;;;15.70;10.43;;;;;;;29.36;39.38;101372.75;5044780;28;20114;-60
2022/08/25 10:51:06;;;;;;;17.35;10.88;;;;;;;29.28;40.43;101376.66;5043096;28;20029;-60
2022/08/25 10:53:59;;;;;;;17.15;10.85;;;;;;;29.25;41.96;101374.13;5041661;28;20111;-60
2022/08/25 10:56:34;;;;;;;15.48;10.23;;;;;;;29.28;40.67;101370.44;5045706;28;20028;-60
2022/08/25 10:59:15;;;;;;;14.60;10.60;;;;;;;29.27;41.25;101366.00;5025898;28;20029;-59
2022/08/25 11:01:55;;;;;;;16.30;9.77;;;;;;;29.34;40.29;101355.84;5039341;28;20492;-59
2022/08/25 11:04:28;;;;;;;14.75;9.90;;;;;;;29.40;39.20;101360.91;5039627;28;20067;-59
2022/08/25 11:06:56;;;;;;;12.82;9.50;;;;;;;29.49;39.31;101357.81;5044945;28;20081;-59
2022/08/25 11:09:38;;;;;;;13.13;9.30;;;;;;;29.56;39.83;101361.94;5021786;28;20036;-59
2022/08/25 11:12:09;;;;;;;13.65;9.07;;;;;;;29.60;38.85;101354.59;5036133;28;20034;-60
2022/08/25 11:14:48;;;;;;;17.23;10.75;;;;;;;29.65;38.45;101360.63;5019871;28;20493;-59
2022/08/25 11:17:24;;;;;;;15.45;10.60;;;;;;;29.75;38.46;101352.97;5037050;28;20075;-59
2022/08/25 11:19:58;;;;;;;15.80;10.27;;;;;;;29.84;37.81;101349.88;5042748;28;20504;-59
2022/08/25 11:22:44;;;;;;;14.45;9.85;;;;;;;29.93;36.49;101344.03;5050221;28;20451;-59
2022/08/25 11:25:24;;;;;;;18.88;11.82;;;;;;;30.04;37.62;101334.56;5042497;28;20485;-59
2022/08/25 11:28:15;;;;;;;16.85;10.77;;;;;;;30.10;38.59;101331.59;5047027;28;20400;-60